sensor_id;sensor_type;location;lat;lon;timestamp;P1;durP1;ratioP1;P2;durP2;ratioP2
76964;SDS011;65903;51.452;7.198;2023-04-15T00:00:11;9.13;;;6.07;;
76964;SDS011;65903;51.452;7.198;2023-04-15T00:01:12;9.43;;;6.05;;
76964;SDS011;65903;51.452;7.198;2023-04-15T00:02:18;11.05;;;5.70;;
76964;SDS011;65903;51.452;7.198;2023-04-15T00:03:19;11.75;;;6.10;;
76964;SDS011;65903;51.452;7.198;2023-04-15T00:04:20;10.07;;;6.28;;
76964;SDS011;65903;51.452;7.198;2023-04-15T00:05:21;11.48;;;6.80;;
76964;SDS011;65903;51.452;7.198;2023-04-15T00:06:22;9.10;;;5.78;;
76964;SDS011;65903;51.452;7.198;2023-04-15T00:07:22;10.80;;;6.53;;
76964;SDS011;65903;51.452;7.198;2023-04-15T00:08:23;10.05;;;5.90;;
76964;SDS011;65903;51.452;7.198;2023-04-15T00:09:27;8.23;;;5.82;;
76964;SDS011;65903;51.452;7.198;2023-04-15T00:10:27;10.90;;;6.03;;
76964;SDS011;65903;51.452;7.198;2023-04-15T00:11:28;9.25;;;5.95;;
76964;SDS011;65903;51.452;7.198;2023-04-15T00:12:32;12.95;;;7.15;;
76964;SDS011;65903;51.452;7.198;2023-04-15T00:13:33;9.10;;;6.25;;
76964;SDS011;65903;51.452;7.198;2023-04-15T00:14:34;10.65;;;6.40;;
76964;SDS011;65903;51.452;7.198;2023-04-15T00:15:38;12.00;;;6.63;;
76964;SDS011;65903;51.452;7.198;2023-04-15T00:16:42;11.15;;;6.47;;
76964;SDS011;65903;51.452;7.198;2023-04-15T00:17:42;9.57;;;5.53;;
76964;SDS011;65903;51.452;7.198;2023-04-15T00:18:43;11.48;;;6.38;;
76964;SDS011;65903;51.452;7.198;2023-04-15T00:19:44;7.40;;;6.03;;
76964;SDS011;65903;51.452;7.198;2023-04-15T00:20:45;10.00;;;6.32;;
76964;SDS011;65903;51.452;7.198;2023-04-15T00:21:46;9.02;;;6.22;;
76964;SDS011;65903;51.452;7.198;2023-04-15T00:22:47;9.68;;;6.07;;
76964;SDS011;65903;51.452;7.198;2023-04-15T00:23:50;9.77;;;6.32;;
76964;SDS011;65903;51.452;7.198;2023-04-15T00:24:56;11.70;;;7.00;;
76964;SDS011;65903;51.452;7.198;2023-04-15T00:25:57;9.00;;;5.80;;
76964;SDS011;65903;51.452;7.198;2023-04-15T00:26:58;10.65;;;6.10;;
76964;SDS011;65903;51.452;7.198;2023-04-15T00:27:59;10.52;;;5.97;;
76964;SDS011;65903;51.452;7.198;2023-04-15T00:29:00;8.57;;;6.00;;
76964;SDS011;65903;51.452;7.198;2023-04-15T00:30:01;10.70;;;6.45;;
76964;SDS011;65903;51.452;7.198;2023-04-15T00:31:03;12.48;;;6.40;;
76964;SDS011;65903;51.452;7.198;2023-04-15T00:32:04;11.20;;;6.47;;
76964;SDS011;65903;51.452;7.198;2023-04-15T00:33:05;9.00;;;5.72;;
76964;SDS011;65903;51.452;7.198;2023-04-15T00:34:07;11.07;;;5.80;;
76964;SDS011;65903;51.452;7.198;2023-04-15T00:35:08;9.93;;;5.45;;
76964;SDS011;65903;51.452;7.198;2023-04-15T00:36:11;10.90;;;6.28;;
76964;SDS011;65903;51.452;7.198;2023-04-15T00:37:12;9.82;;;5.78;;
76964;SDS011;65903;51.452;7.198;2023-04-15T00:38:12;11.57;;;7.15;;
76964;SDS011;65903;51.452;7.198;2023-04-15T00:39:13;10.38;;;6.43;;
76964;SDS011;65903;51.452;7.198;2023-04-15T00:40:16;11.40;;;6.45;;
76964;SDS011;65903;51.452;7.198;2023-04-15T00:41:18;9.48;;;7.13;;
76964;SDS011;65903;51.452;7.198;2023-04-15T00:42:22;10.07;;;7.07;;
76964;SDS011;65903;51.452;7.198;2023-04-15T00:43:27;13.13;;;6.90;;
76964;SDS011;65903;51.452;7.198;2023-04-15T00:44:29;9.48;;;6.60;;
76964;SDS011;65903;51.452;7.198;2023-04-15T00:45:30;11.63;;;6.57;;
76964;SDS011;65903;51.452;7.198;2023-04-15T00:46:31;10.75;;;7.07;;
76964;SDS011;65903;51.452;7.198;2023-04-15T00:47:36;11.30;;;6.60;;
76964;SDS011;65903;51.452;7.198;2023-04-15T00:48:38;11.18;;;6.45;;
76964;SDS011;65903;51.452;7.198;2023-04-15T00:49:40;11.10;;;6.40;;
76964;SDS011;65903;51.452;7.198;2023-04-15T00:50:40;11.30;;;6.70;;
76964;SDS011;65903;51.452;7.198;2023-04-15T00:51:41;13.07;;;7.57;;
76964;SDS011;65903;51.452;7.198;2023-04-15T00:52:42;11.98;;;6.95;;
76964;SDS011;65903;51.452;7.198;2023-04-15T00:53:45;9.93;;;6.30;;
76964;SDS011;65903;51.452;7.198;2023-04-15T00:54:46;10.35;;;7.20;;
76964;SDS011;65903;51.452;7.198;2023-04-15T00:55:47;11.93;;;7.18;;
76964;SDS011;65903;51.452;7.198;2023-04-15T00:56:48;13.43;;;8.23;;
76964;SDS011;65903;51.452;7.198;2023-04-15T00:57:51;10.23;;;7.60;;
76964;SDS011;65903;51.452;7.198;2023-04-15T00:58:52;10.35;;;7.22;;
76964;SDS011;65903;51.452;7.198;2023-04-15T00:59:53;12.07;;;8.10;;
76964;SDS011;65903;51.452;7.198;2023-04-15T01:00:55;11.55;;;7.90;;
76964;SDS011;65903;51.452;7.198;2023-04-15T01:01:56;11.77;;;7.47;;
76964;SDS011;65903;51.452;7.198;2023-04-15T01:03:00;11.38;;;7.32;;
76964;SDS011;65903;51.452;7.198;2023-04-15T01:04:02;9.45;;;7.50;;
76964;SDS011;65903;51.452;7.198;2023-04-15T01:05:04;15.18;;;9.45;;
76964;SDS011;65903;51.452;7.198;2023-04-15T01:06:05;11.35;;;7.63;;
76964;SDS011;65903;51.452;7.198;2023-04-15T01:07:06;11.32;;;7.18;;
76964;SDS011;65903;51.452;7.198;2023-04-15T01:09:10;10.77;;;6.82;;
76964;SDS011;65903;51.452;7.198;2023-04-15T01:10:11;15.43;;;7.97;;
76964;SDS011;65903;51.452;7.198;2023-04-15T01:11:12;13.18;;;7.55;;
76964;SDS011;65903;51.452;7.198;2023-04-15T01:12:14;12.98;;;7.65;;
76964;SDS011;65903;51.452;7.198;2023-04-15T01:13:16;12.95;;;7.53;;
76964;SDS011;65903;51.452;7.198;2023-04-15T01:14:16;14.00;;;8.10;;
76964;SDS011;65903;51.452;7.198;2023-04-15T01:15:17;11.70;;;8.30;;
76964;SDS011;65903;51.452;7.198;2023-04-15T01:16:21;12.70;;;7.97;;
76964;SDS011;65903;51.452;7.198;2023-04-15T01:17:23;13.90;;;8.65;;
76964;SDS011;65903;51.452;7.198;2023-04-15T01:18:26;11.73;;;7.72;;
76964;SDS011;65903;51.452;7.198;2023-04-15T01:19:27;14.27;;;8.52;;
76964;SDS011;65903;51.452;7.198;2023-04-15T01:20:31;13.70;;;8.63;;
76964;SDS011;65903;51.452;7.198;2023-04-15T01:22:39;14.23;;;8.10;;
76964;SDS011;65903;51.452;7.198;2023-04-15T01:23:40;12.25;;;8.88;;
76964;SDS011;65903;51.452;7.198;2023-04-15T01:24:46;11.15;;;8.35;;
76964;SDS011;65903;51.452;7.198;2023-04-15T01:25:51;15.40;;;8.13;;
76964;SDS011;65903;51.452;7.198;2023-04-15T01:26:52;13.98;;;8.95;;
76964;SDS011;65903;51.452;7.198;2023-04-15T01:27:53;13.52;;;8.85;;
76964;SDS011;65903;51.452;7.198;2023-04-15T01:28:54;14.43;;;8.57;;
76964;SDS011;65903;51.452;7.198;2023-04-15T01:29:55;15.10;;;8.80;;
76964;SDS011;65903;51.452;7.198;2023-04-15T01:31:05;17.33;;;8.43;;
76964;SDS011;65903;51.452;7.198;2023-04-15T01:32:07;17.25;;;8.98;;
76964;SDS011;65903;51.452;7.198;2023-04-15T01:33:08;12.43;;;8.52;;
76964;SDS011;65903;51.452;7.198;2023-04-15T01:34:11;15.68;;;9.25;;
76964;SDS011;65903;51.452;7.198;2023-04-15T01:35:12;13.88;;;8.68;;
76964;SDS011;65903;51.452;7.198;2023-04-15T01:37:16;14.70;;;8.75;;
76964;SDS011;65903;51.452;7.198;2023-04-15T01:38:19;14.10;;;8.77;;
76964;SDS011;65903;51.452;7.198;2023-04-15T01:39:22;13.70;;;8.75;;
76964;SDS011;65903;51.452;7.198;2023-04-15T01:40:23;15.20;;;8.55;;
76964;SDS011;65903;51.452;7.198;2023-04-15T01:41:27;13.32;;;8.68;;
76964;SDS011;65903;51.452;7.198;2023-04-15T01:42:31;13.63;;;8.15;;
76964;SDS011;65903;51.452;7.198;2023-04-15T01:43:34;13.65;;;8.60;;
76964;SDS011;65903;51.452;7.198;2023-04-15T01:44:36;15.55;;;8.85;;
76964;SDS011;65903;51.452;7.198;2023-04-15T01:45:37;13.85;;;9.32;;
76964;SDS011;65903;51.452;7.198;2023-04-15T01:46:38;11.55;;;8.15;;
76964;SDS011;65903;51.452;7.198;2023-04-15T01:47:41;17.33;;;9.65;;
76964;SDS011;65903;51.452;7.198;2023-04-15T01:48:44;14.38;;;8.40;;
76964;SDS011;65903;51.452;7.198;2023-04-15T01:49:48;13.10;;;8.57;;
76964;SDS011;65903;51.452;7.198;2023-04-15T01:50:48;15.52;;;9.30;;
76964;SDS011;65903;51.452;7.198;2023-04-15T01:51:50;11.98;;;8.00;;
76964;SDS011;65903;51.452;7.198;2023-04-15T01:52:50;10.73;;;8.57;;
76964;SDS011;65903;51.452;7.198;2023-04-15T01:53:51;12.95;;;8.38;;
76964;SDS011;65903;51.452;7.198;2023-04-15T01:54:52;17.38;;;9.45;;
76964;SDS011;65903;51.452;7.198;2023-04-15T01:55:53;15.45;;;9.13;;
76964;SDS011;65903;51.452;7.198;2023-04-15T01:56:54;14.77;;;8.93;;
76964;SDS011;65903;51.452;7.198;2023-04-15T01:57:56;12.55;;;8.10;;
76964;SDS011;65903;51.452;7.198;2023-04-15T01:58:56;14.73;;;8.45;;
76964;SDS011;65903;51.452;7.198;2023-04-15T01:59:59;15.70;;;8.38;;
76964;SDS011;65903;51.452;7.198;2023-04-15T02:01:02;16.95;;;8.98;;
76964;SDS011;65903;51.452;7.198;2023-04-15T02:02:06;16.02;;;9.93;;
76964;SDS011;65903;51.452;7.198;2023-04-15T02:03:08;15.15;;;8.55;;
76964;SDS011;65903;51.452;7.198;2023-04-15T02:04:09;15.77;;;9.07;;
76964;SDS011;65903;51.452;7.198;2023-04-15T02:05:16;13.88;;;8.25;;
76964;SDS011;65903;51.452;7.198;2023-04-15T02:06:17;12.48;;;8.48;;
76964;SDS011;65903;51.452;7.198;2023-04-15T02:07:20;12.32;;;8.88;;
76964;SDS011;65903;51.452;7.198;2023-04-15T02:08:26;13.63;;;9.10;;
76964;SDS011;65903;51.452;7.198;2023-04-15T02:09:29;16.27;;;9.07;;
76964;SDS011;65903;51.452;7.198;2023-04-15T02:10:32;12.77;;;8.25;;
76964;SDS011;65903;51.452;7.198;2023-04-15T02:11:33;13.93;;;9.20;;
76964;SDS011;65903;51.452;7.198;2023-04-15T02:12:36;20.13;;;9.70;;
76964;SDS011;65903;51.452;7.198;2023-04-15T02:13:37;14.38;;;10.30;;
76964;SDS011;65903;51.452;7.198;2023-04-15T02:14:38;15.25;;;9.55;;
76964;SDS011;65903;51.452;7.198;2023-04-15T02:15:39;13.52;;;9.35;;
76964;SDS011;65903;51.452;7.198;2023-04-15T02:16:40;11.73;;;8.75;;
76964;SDS011;65903;51.452;7.198;2023-04-15T02:17:41;14.05;;;9.45;;
76964;SDS011;65903;51.452;7.198;2023-04-15T02:18:45;14.88;;;9.82;;
76964;SDS011;65903;51.452;7.198;2023-04-15T02:19:46;13.07;;;8.32;;
76964;SDS011;65903;51.452;7.198;2023-04-15T02:20:50;14.75;;;8.98;;
76964;SDS011;65903;51.452;7.198;2023-04-15T02:21:54;15.27;;;8.32;;
76964;SDS011;65903;51.452;7.198;2023-04-15T02:22:55;12.63;;;9.00;;
76964;SDS011;65903;51.452;7.198;2023-04-15T02:23:58;12.98;;;8.88;;
76964;SDS011;65903;51.452;7.198;2023-04-15T02:25:00;13.77;;;8.43;;
76964;SDS011;65903;51.452;7.198;2023-04-15T02:26:03;13.27;;;8.77;;
76964;SDS011;65903;51.452;7.198;2023-04-15T02:28:07;14.05;;;8.88;;
76964;SDS011;65903;51.452;7.198;2023-04-15T02:29:07;14.73;;;9.15;;
76964;SDS011;65903;51.452;7.198;2023-04-15T02:30:09;13.80;;;9.07;;
76964;SDS011;65903;51.452;7.198;2023-04-15T02:31:10;13.30;;;8.30;;
76964;SDS011;65903;51.452;7.198;2023-04-15T02:32:13;15.55;;;9.48;;
76964;SDS011;65903;51.452;7.198;2023-04-15T02:33:14;15.95;;;9.57;;
76964;SDS011;65903;51.452;7.198;2023-04-15T02:34:15;15.38;;;9.30;;
76964;SDS011;65903;51.452;7.198;2023-04-15T02:35:19;15.05;;;9.88;;
76964;SDS011;65903;51.452;7.198;2023-04-15T02:36:23;14.90;;;9.57;;
76964;SDS011;65903;51.452;7.198;2023-04-15T02:37:24;12.30;;;9.45;;
76964;SDS011;65903;51.452;7.198;2023-04-15T02:38:29;12.90;;;8.85;;
76964;SDS011;65903;51.452;7.198;2023-04-15T02:39:31;13.13;;;9.40;;
76964;SDS011;65903;51.452;7.198;2023-04-15T02:40:32;13.85;;;9.00;;
76964;SDS011;65903;51.452;7.198;2023-04-15T02:41:33;16.30;;;9.77;;
76964;SDS011;65903;51.452;7.198;2023-04-15T02:42:37;15.05;;;9.43;;
76964;SDS011;65903;51.452;7.198;2023-04-15T02:43:38;15.27;;;9.73;;
76964;SDS011;65903;51.452;7.198;2023-04-15T02:44:39;13.50;;;8.93;;
76964;SDS011;65903;51.452;7.198;2023-04-15T02:45:40;12.40;;;8.88;;
76964;SDS011;65903;51.452;7.198;2023-04-15T02:46:42;13.38;;;9.77;;
76964;SDS011;65903;51.452;7.198;2023-04-15T02:47:43;16.65;;;10.02;;
76964;SDS011;65903;51.452;7.198;2023-04-15T02:48:45;14.60;;;9.00;;
76964;SDS011;65903;51.452;7.198;2023-04-15T02:49:46;15.10;;;9.95;;
76964;SDS011;65903;51.452;7.198;2023-04-15T02:50:52;16.23;;;9.77;;
76964;SDS011;65903;51.452;7.198;2023-04-15T02:51:52;18.50;;;9.85;;
76964;SDS011;65903;51.452;7.198;2023-04-15T02:52:57;14.43;;;10.38;;
76964;SDS011;65903;51.452;7.198;2023-04-15T02:53:58;16.42;;;9.38;;
76964;SDS011;65903;51.452;7.198;2023-04-15T02:56:04;12.48;;;9.18;;
76964;SDS011;65903;51.452;7.198;2023-04-15T02:57:06;12.70;;;9.32;;
76964;SDS011;65903;51.452;7.198;2023-04-15T02:58:11;15.93;;;9.52;;
76964;SDS011;65903;51.452;7.198;2023-04-15T02:59:11;14.48;;;9.93;;
76964;SDS011;65903;51.452;7.198;2023-04-15T03:00:13;16.15;;;10.10;;
76964;SDS011;65903;51.452;7.198;2023-04-15T03:01:18;12.32;;;9.45;;
76964;SDS011;65903;51.452;7.198;2023-04-15T03:02:19;14.20;;;9.82;;
76964;SDS011;65903;51.452;7.198;2023-04-15T03:03:23;14.63;;;9.55;;
76964;SDS011;65903;51.452;7.198;2023-04-15T03:04:23;12.95;;;9.48;;
76964;SDS011;65903;51.452;7.198;2023-04-15T03:05:27;16.50;;;9.45;;
76964;SDS011;65903;51.452;7.198;2023-04-15T03:06:31;14.23;;;10.43;;
76964;SDS011;65903;51.452;7.198;2023-04-15T03:07:31;11.90;;;9.02;;
76964;SDS011;65903;51.452;7.198;2023-04-15T03:08:32;14.40;;;10.00;;
76964;SDS011;65903;51.452;7.198;2023-04-15T03:09:36;14.00;;;9.88;;
76964;SDS011;65903;51.452;7.198;2023-04-15T03:10:39;14.20;;;9.45;;
76964;SDS011;65903;51.452;7.198;2023-04-15T03:11:40;17.65;;;10.23;;
76964;SDS011;65903;51.452;7.198;2023-04-15T03:12:41;16.52;;;10.05;;
76964;SDS011;65903;51.452;7.198;2023-04-15T03:13:42;15.13;;;10.20;;
76964;SDS011;65903;51.452;7.198;2023-04-15T03:14:45;14.82;;;9.88;;
76964;SDS011;65903;51.452;7.198;2023-04-15T03:15:46;19.00;;;10.25;;
76964;SDS011;65903;51.452;7.198;2023-04-15T03:16:47;16.00;;;10.20;;
76964;SDS011;65903;51.452;7.198;2023-04-15T03:17:53;17.60;;;10.10;;
76964;SDS011;65903;51.452;7.198;2023-04-15T03:18:53;16.40;;;10.07;;
76964;SDS011;65903;51.452;7.198;2023-04-15T03:19:54;16.25;;;9.40;;
76964;SDS011;65903;51.452;7.198;2023-04-15T03:20:55;15.73;;;9.90;;
76964;SDS011;65903;51.452;7.198;2023-04-15T03:21:56;13.65;;;10.18;;
76964;SDS011;65903;51.452;7.198;2023-04-15T03:22:57;17.35;;;10.20;;
76964;SDS011;65903;51.452;7.198;2023-04-15T03:24:00;14.90;;;10.85;;
76964;SDS011;65903;51.452;7.198;2023-04-15T03:25:01;15.02;;;10.70;;
76964;SDS011;65903;51.452;7.198;2023-04-15T03:26:02;14.77;;;10.10;;
76964;SDS011;65903;51.452;7.198;2023-04-15T03:27:03;16.52;;;10.25;;
76964;SDS011;65903;51.452;7.198;2023-04-15T03:28:08;17.13;;;10.80;;
76964;SDS011;65903;51.452;7.198;2023-04-15T03:29:08;13.05;;;10.20;;
76964;SDS011;65903;51.452;7.198;2023-04-15T03:30:10;16.88;;;9.75;;
76964;SDS011;65903;51.452;7.198;2023-04-15T03:31:14;15.30;;;10.35;;
76964;SDS011;65903;51.452;7.198;2023-04-15T03:32:18;14.95;;;9.95;;
76964;SDS011;65903;51.452;7.198;2023-04-15T03:33:19;16.52;;;10.88;;
76964;SDS011;65903;51.452;7.198;2023-04-15T03:34:20;14.70;;;10.38;;
76964;SDS011;65903;51.452;7.198;2023-04-15T03:35:21;14.27;;;10.10;;
76964;SDS011;65903;51.452;7.198;2023-04-15T03:36:25;14.95;;;10.13;;
76964;SDS011;65903;51.452;7.198;2023-04-15T03:37:28;16.42;;;10.57;;
76964;SDS011;65903;51.452;7.198;2023-04-15T03:38:29;16.60;;;10.25;;
76964;SDS011;65903;51.452;7.198;2023-04-15T03:39:29;13.68;;;10.35;;
76964;SDS011;65903;51.452;7.198;2023-04-15T03:40:31;14.57;;;9.95;;
76964;SDS011;65903;51.452;7.198;2023-04-15T03:41:32;14.88;;;10.23;;
76964;SDS011;65903;51.452;7.198;2023-04-15T03:42:32;17.25;;;10.48;;
76964;SDS011;65903;51.452;7.198;2023-04-15T03:43:33;14.52;;;9.88;;
76964;SDS011;65903;51.452;7.198;2023-04-15T03:44:34;15.68;;;10.48;;
76964;SDS011;65903;51.452;7.198;2023-04-15T03:45:38;15.45;;;10.35;;
76964;SDS011;65903;51.452;7.198;2023-04-15T03:46:39;13.75;;;10.20;;
76964;SDS011;65903;51.452;7.198;2023-04-15T03:47:40;17.05;;;10.60;;
76964;SDS011;65903;51.452;7.198;2023-04-15T03:48:43;15.82;;;10.43;;
76964;SDS011;65903;51.452;7.198;2023-04-15T03:49:46;16.13;;;11.05;;
76964;SDS011;65903;51.452;7.198;2023-04-15T03:50:47;15.93;;;10.85;;
76964;SDS011;65903;51.452;7.198;2023-04-15T03:51:48;16.98;;;10.20;;
76964;SDS011;65903;51.452;7.198;2023-04-15T03:52:52;14.60;;;11.27;;
76964;SDS011;65903;51.452;7.198;2023-04-15T03:53:55;15.98;;;10.85;;
76964;SDS011;65903;51.452;7.198;2023-04-15T03:54:56;19.27;;;10.45;;
76964;SDS011;65903;51.452;7.198;2023-04-15T03:55:57;15.90;;;10.55;;
76964;SDS011;65903;51.452;7.198;2023-04-15T03:56:58;18.70;;;10.43;;
76964;SDS011;65903;51.452;7.198;2023-04-15T03:57:59;19.65;;;10.55;;
76964;SDS011;65903;51.452;7.198;2023-04-15T03:59:02;16.02;;;10.35;;
76964;SDS011;65903;51.452;7.198;2023-04-15T04:00:06;16.38;;;11.10;;
76964;SDS011;65903;51.452;7.198;2023-04-15T04:01:08;15.27;;;9.32;;
76964;SDS011;65903;51.452;7.198;2023-04-15T04:02:09;15.23;;;9.80;;
76964;SDS011;65903;51.452;7.198;2023-04-15T04:03:12;15.07;;;9.80;;
76964;SDS011;65903;51.452;7.198;2023-04-15T04:04:13;14.00;;;9.95;;
76964;SDS011;65903;51.452;7.198;2023-04-15T04:05:14;16.40;;;10.00;;
76964;SDS011;65903;51.452;7.198;2023-04-15T04:06:18;15.30;;;10.55;;
76964;SDS011;65903;51.452;7.198;2023-04-15T04:07:19;16.35;;;11.10;;
76964;SDS011;65903;51.452;7.198;2023-04-15T04:08:19;14.23;;;10.45;;
76964;SDS011;65903;51.452;7.198;2023-04-15T04:09:21;15.15;;;9.65;;
76964;SDS011;65903;51.452;7.198;2023-04-15T04:10:24;16.23;;;9.88;;
76964;SDS011;65903;51.452;7.198;2023-04-15T04:11:25;14.65;;;9.65;;
76964;SDS011;65903;51.452;7.198;2023-04-15T04:13:29;17.10;;;9.82;;
76964;SDS011;65903;51.452;7.198;2023-04-15T04:14:29;17.25;;;10.15;;
76964;SDS011;65903;51.452;7.198;2023-04-15T04:15:30;19.67;;;11.13;;
76964;SDS011;65903;51.452;7.198;2023-04-15T04:16:31;16.50;;;9.80;;
76964;SDS011;65903;51.452;7.198;2023-04-15T04:17:35;17.70;;;10.20;;
76964;SDS011;65903;51.452;7.198;2023-04-15T04:18:36;15.27;;;9.70;;
76964;SDS011;65903;51.452;7.198;2023-04-15T04:19:39;16.67;;;10.23;;
76964;SDS011;65903;51.452;7.198;2023-04-15T04:20:40;17.10;;;9.52;;
76964;SDS011;65903;51.452;7.198;2023-04-15T04:21:41;14.95;;;10.18;;
76964;SDS011;65903;51.452;7.198;2023-04-15T04:22:42;15.88;;;9.65;;
76964;SDS011;65903;51.452;7.198;2023-04-15T04:23:42;14.25;;;10.50;;
76964;SDS011;65903;51.452;7.198;2023-04-15T04:24:43;13.93;;;9.88;;
76964;SDS011;65903;51.452;7.198;2023-04-15T04:25:46;15.45;;;10.43;;
76964;SDS011;65903;51.452;7.198;2023-04-15T04:27:53;16.77;;;10.18;;
76964;SDS011;65903;51.452;7.198;2023-04-15T04:28:54;13.45;;;9.50;;
76964;SDS011;65903;51.452;7.198;2023-04-15T04:29:55;15.75;;;10.18;;
76964;SDS011;65903;51.452;7.198;2023-04-15T04:30:58;15.75;;;9.63;;
76964;SDS011;65903;51.452;7.198;2023-04-15T04:32:01;15.20;;;9.52;;
76964;SDS011;65903;51.452;7.198;2023-04-15T04:33:02;14.85;;;10.05;;
76964;SDS011;65903;51.452;7.198;2023-04-15T04:34:05;15.55;;;10.10;;
76964;SDS011;65903;51.452;7.198;2023-04-15T04:36:13;16.27;;;9.57;;
76964;SDS011;65903;51.452;7.198;2023-04-15T04:37:16;16.23;;;9.68;;
76964;SDS011;65903;51.452;7.198;2023-04-15T04:38:20;14.38;;;9.55;;
76964;SDS011;65903;51.452;7.198;2023-04-15T04:39:26;17.05;;;10.60;;
76964;SDS011;65903;51.452;7.198;2023-04-15T04:40:32;15.88;;;9.63;;
76964;SDS011;65903;51.452;7.198;2023-04-15T04:41:33;14.23;;;9.70;;
76964;SDS011;65903;51.452;7.198;2023-04-15T04:42:34;17.05;;;10.38;;
76964;SDS011;65903;51.452;7.198;2023-04-15T04:44:37;17.90;;;8.82;;
76964;SDS011;65903;51.452;7.198;2023-04-15T04:45:43;17.48;;;10.35;;
76964;SDS011;65903;51.452;7.198;2023-04-15T04:46:44;14.98;;;8.95;;
76964;SDS011;65903;51.452;7.198;2023-04-15T04:47:45;16.58;;;9.82;;
76964;SDS011;65903;51.452;7.198;2023-04-15T04:48:48;14.10;;;9.65;;
76964;SDS011;65903;51.452;7.198;2023-04-15T04:49:49;15.55;;;10.25;;
76964;SDS011;65903;51.452;7.198;2023-04-15T04:50:50;14.73;;;10.38;;
76964;SDS011;65903;51.452;7.198;2023-04-15T04:51:51;18.10;;;11.60;;
76964;SDS011;65903;51.452;7.198;2023-04-15T04:52:52;12.60;;;9.13;;
76964;SDS011;65903;51.452;7.198;2023-04-15T04:53:53;14.70;;;9.85;;
76964;SDS011;65903;51.452;7.198;2023-04-15T04:54:54;14.55;;;9.68;;
76964;SDS011;65903;51.452;7.198;2023-04-15T04:55:55;13.85;;;9.35;;
76964;SDS011;65903;51.452;7.198;2023-04-15T04:56:55;16.75;;;11.00;;
76964;SDS011;65903;51.452;7.198;2023-04-15T04:58:01;13.63;;;8.70;;
76964;SDS011;65903;51.452;7.198;2023-04-15T04:59:06;14.00;;;9.50;;
76964;SDS011;65903;51.452;7.198;2023-04-15T05:00:07;14.80;;;10.38;;
76964;SDS011;65903;51.452;7.198;2023-04-15T05:01:08;12.52;;;9.48;;
76964;SDS011;65903;51.452;7.198;2023-04-15T05:02:09;14.13;;;9.65;;
76964;SDS011;65903;51.452;7.198;2023-04-15T05:03:17;18.55;;;10.15;;
76964;SDS011;65903;51.452;7.198;2023-04-15T05:04:21;14.02;;;10.10;;
76964;SDS011;65903;51.452;7.198;2023-04-15T05:05:22;14.38;;;10.35;;
76964;SDS011;65903;51.452;7.198;2023-04-15T05:06:25;13.68;;;9.73;;
76964;SDS011;65903;51.452;7.198;2023-04-15T05:07:28;15.30;;;10.02;;
76964;SDS011;65903;51.452;7.198;2023-04-15T05:08:32;14.77;;;9.05;;
76964;SDS011;65903;51.452;7.198;2023-04-15T05:09:35;18.08;;;10.90;;
76964;SDS011;65903;51.452;7.198;2023-04-15T05:10:38;16.58;;;10.82;;
76964;SDS011;65903;51.452;7.198;2023-04-15T05:11:41;14.82;;;9.68;;
76964;SDS011;65903;51.452;7.198;2023-04-15T05:12:45;16.70;;;10.00;;
76964;SDS011;65903;51.452;7.198;2023-04-15T05:14:54;14.25;;;10.02;;
76964;SDS011;65903;51.452;7.198;2023-04-15T05:15:54;16.33;;;10.15;;
76964;SDS011;65903;51.452;7.198;2023-04-15T05:16:57;14.70;;;9.10;;
76964;SDS011;65903;51.452;7.198;2023-04-15T05:18:03;15.25;;;10.10;;
76964;SDS011;65903;51.452;7.198;2023-04-15T05:19:09;20.55;;;10.23;;
76964;SDS011;65903;51.452;7.198;2023-04-15T05:20:14;15.02;;;10.18;;
76964;SDS011;65903;51.452;7.198;2023-04-15T05:21:15;17.25;;;9.38;;
76964;SDS011;65903;51.452;7.198;2023-04-15T05:22:19;13.48;;;8.65;;
76964;SDS011;65903;51.452;7.198;2023-04-15T05:23:19;15.23;;;10.07;;
76964;SDS011;65903;51.452;7.198;2023-04-15T05:24:22;15.15;;;9.93;;
76964;SDS011;65903;51.452;7.198;2023-04-15T05:25:25;14.90;;;10.10;;
76964;SDS011;65903;51.452;7.198;2023-04-15T05:26:28;18.90;;;10.82;;
76964;SDS011;65903;51.452;7.198;2023-04-15T05:27:31;16.90;;;10.20;;
76964;SDS011;65903;51.452;7.198;2023-04-15T05:28:37;16.08;;;9.52;;
76964;SDS011;65903;51.452;7.198;2023-04-15T05:29:38;14.55;;;9.82;;
76964;SDS011;65903;51.452;7.198;2023-04-15T05:30:39;15.55;;;10.75;;
76964;SDS011;65903;51.452;7.198;2023-04-15T05:31:42;15.25;;;10.50;;
76964;SDS011;65903;51.452;7.198;2023-04-15T05:32:43;16.05;;;10.15;;
76964;SDS011;65903;51.452;7.198;2023-04-15T05:33:46;18.30;;;11.32;;
76964;SDS011;65903;51.452;7.198;2023-04-15T05:34:49;13.20;;;9.85;;
76964;SDS011;65903;51.452;7.198;2023-04-15T05:35:50;17.90;;;10.20;;
76964;SDS011;65903;51.452;7.198;2023-04-15T05:37:56;17.27;;;9.93;;
76964;SDS011;65903;51.452;7.198;2023-04-15T05:38:57;16.25;;;9.77;;
76964;SDS011;65903;51.452;7.198;2023-04-15T05:40:01;16.45;;;10.18;;
76964;SDS011;65903;51.452;7.198;2023-04-15T05:41:03;17.15;;;9.82;;
76964;SDS011;65903;51.452;7.198;2023-04-15T05:42:07;15.77;;;10.73;;
76964;SDS011;65903;51.452;7.198;2023-04-15T05:43:07;14.98;;;10.50;;
76964;SDS011;65903;51.452;7.198;2023-04-15T05:44:13;16.38;;;11.52;;
76964;SDS011;65903;51.452;7.198;2023-04-15T05:45:19;16.60;;;10.80;;
76964;SDS011;65903;51.452;7.198;2023-04-15T05:46:22;14.60;;;10.35;;
76964;SDS011;65903;51.452;7.198;2023-04-15T05:47:23;14.38;;;10.20;;
76964;SDS011;65903;51.452;7.198;2023-04-15T05:48:24;17.55;;;11.00;;
76964;SDS011;65903;51.452;7.198;2023-04-15T05:49:25;16.27;;;11.10;;
76964;SDS011;65903;51.452;7.198;2023-04-15T05:50:28;15.55;;;9.38;;
76964;SDS011;65903;51.452;7.198;2023-04-15T05:51:29;15.30;;;10.00;;
76964;SDS011;65903;51.452;7.198;2023-04-15T05:52:32;15.60;;;11.13;;
76964;SDS011;65903;51.452;7.198;2023-04-15T05:53:36;19.20;;;10.77;;
76964;SDS011;65903;51.452;7.198;2023-04-15T05:54:36;18.88;;;11.73;;
76964;SDS011;65903;51.452;7.198;2023-04-15T05:55:37;16.30;;;11.98;;
76964;SDS011;65903;51.452;7.198;2023-04-15T05:56:41;17.17;;;11.57;;
76964;SDS011;65903;51.452;7.198;2023-04-15T05:57:45;16.63;;;12.07;;
76964;SDS011;65903;51.452;7.198;2023-04-15T05:58:45;17.88;;;11.80;;
76964;SDS011;65903;51.452;7.198;2023-04-15T05:59:46;17.13;;;11.93;;
76964;SDS011;65903;51.452;7.198;2023-04-15T06:00:46;18.98;;;12.13;;
76964;SDS011;65903;51.452;7.198;2023-04-15T06:01:47;19.67;;;12.15;;
76964;SDS011;65903;51.452;7.198;2023-04-15T06:02:48;20.65;;;12.52;;
76964;SDS011;65903;51.452;7.198;2023-04-15T06:03:51;18.00;;;12.45;;
76964;SDS011;65903;51.452;7.198;2023-04-15T06:04:52;15.85;;;11.07;;
76964;SDS011;65903;51.452;7.198;2023-04-15T06:05:55;20.17;;;13.05;;
76964;SDS011;65903;51.452;7.198;2023-04-15T06:06:57;18.85;;;12.43;;
76964;SDS011;65903;51.452;7.198;2023-04-15T06:08:03;17.23;;;11.82;;
76964;SDS011;65903;51.452;7.198;2023-04-15T06:09:09;19.10;;;12.35;;
76964;SDS011;65903;51.452;7.198;2023-04-15T06:10:15;18.55;;;12.73;;
76964;SDS011;65903;51.452;7.198;2023-04-15T06:11:15;16.67;;;12.00;;
76964;SDS011;65903;51.452;7.198;2023-04-15T06:12:16;20.88;;;13.02;;
76964;SDS011;65903;51.452;7.198;2023-04-15T06:13:17;18.67;;;12.13;;
76964;SDS011;65903;51.452;7.198;2023-04-15T06:14:17;18.83;;;12.43;;
76964;SDS011;65903;51.452;7.198;2023-04-15T06:15:21;18.98;;;12.40;;
76964;SDS011;65903;51.452;7.198;2023-04-15T06:16:24;17.30;;;11.40;;
76964;SDS011;65903;51.452;7.198;2023-04-15T06:17:27;20.77;;;12.52;;
76964;SDS011;65903;51.452;7.198;2023-04-15T06:18:28;19.95;;;12.77;;